createdAt,value
2023-04-25T00:00:18.503Z,98860.53
2023-04-25T00:02:45.191Z,98853.69
2023-04-25T00:05:12.513Z,98850.63
2023-04-25T00:07:39.527Z,98847.41
2023-04-25T00:10:07.319Z,98849.34
2023-04-25T00:15:10.586Z,98845.16
2023-04-25T00:17:39.330Z,98838.12
2023-04-25T00:20:08.837Z,98833.59
2023-04-25T00:23:06.332Z,98839.03
2023-04-25T00:25:57.796Z,98829.75
2023-04-25T00:28:33.553Z,98818.41
2023-04-25T00:31:00.643Z,98817.81
2023-04-25T00:33:27.352Z,98812.66
2023-04-25T00:35:54.127Z,98824.84
2023-04-25T00:38:22.693Z,98821.75
2023-04-25T00:40:49.362Z,98818.84
2023-04-25T00:43:33.402Z,98808.25
2023-04-25T00:46:02.091Z,98804.72
2023-04-25T00:48:29.124Z,98809.69
2023-04-25T00:50:58.776Z,98803.25
2023-04-25T00:54:02.971Z,98808.91
2023-04-25T00:56:48.213Z,98815.22
2023-04-25T00:59:16.210Z,98805.22
2023-04-25T01:01:45.176Z,98798.91
2023-04-25T01:04:12.257Z,98800.69
2023-04-25T01:06:39.420Z,98789.25
2023-04-25T01:09:06.403Z,98797.81
2023-04-25T01:14:08.348Z,98783.16
2023-04-25T01:16:35.227Z,98791.00
2023-04-25T01:19:02.476Z,98796.63
2023-04-25T01:25:11.958Z,98788.44
2023-04-25T01:27:45.000Z,98780.09
2023-04-25T01:30:11.645Z,98780.97
2023-04-25T01:32:41.708Z,98778.00
2023-04-25T01:35:10.836Z,98765.41
2023-04-25T01:37:42.260Z,98779.75
2023-04-25T01:40:11.574Z,98778.81
2023-04-25T01:42:42.099Z,98774.03
2023-04-25T01:45:09.527Z,98774.78
2023-04-25T01:47:36.363Z,98770.50
2023-04-25T01:50:04.943Z,98774.94
2023-04-25T01:52:44.060Z,98770.94
2023-04-25T01:55:25.834Z,98773.16
2023-04-25T01:57:52.509Z,98775.53
2023-04-25T02:00:19.561Z,98772.72
2023-04-25T02:02:46.241Z,98772.41
2023-04-25T02:05:15.602Z,98783.78
2023-04-25T02:07:42.219Z,98784.66
2023-04-25T02:12:44.046Z,98785.16
2023-04-25T02:15:11.710Z,98791.75
2023-04-25T02:17:53.788Z,98781.44
2023-04-25T02:20:24.244Z,98781.09
2023-04-25T02:22:51.039Z,98788.63
2023-04-25T02:29:23.290Z,98786.22
2023-04-25T02:31:56.910Z,98796.84
2023-04-25T02:34:23.624Z,98791.28
2023-04-25T02:36:53.309Z,98778.97
2023-04-25T02:39:20.095Z,98776.75
2023-04-25T02:41:46.699Z,98780.56
2023-04-25T02:44:14.061Z,98783.19
2023-04-25T02:46:40.696Z,98776.22
2023-04-25T02:49:07.793Z,98771.31
2023-04-25T02:51:34.468Z,98779.97
2023-04-25T02:54:01.054Z,98786.06
2023-04-25T02:56:28.037Z,98781.41
2023-04-25T02:58:54.768Z,98781.22
2023-04-25T03:01:49.542Z,98780.78
2023-04-25T03:04:32.046Z,98777.12
2023-04-25T03:06:58.621Z,98775.31
2023-04-25T03:09:25.397Z,98784.00
2023-04-25T03:11:51.990Z,98774.66
2023-04-25T03:14:18.723Z,98783.72
2023-04-25T03:16:46.139Z,98768.75
2023-04-25T03:19:12.878Z,98768.06
2023-04-25T03:21:39.548Z,98770.50
2023-04-25T03:24:06.400Z,98767.13
2023-04-25T03:26:33.034Z,98768.88
2023-04-25T03:28:59.605Z,98771.63
2023-04-25T03:31:26.269Z,98769.38
2023-04-25T03:33:53.133Z,98765.34
2023-04-25T03:36:19.944Z,98772.13
2023-04-25T03:38:46.647Z,98766.78
2023-04-25T03:41:13.449Z,98771.12
2023-04-25T03:43:40.043Z,98783.22
2023-04-25T03:46:06.692Z,98782.09
2023-04-25T03:48:33.335Z,98781.59
2023-04-25T03:51:00.039Z,98788.22
2023-04-25T03:53:26.682Z,98786.91
2023-04-25T03:55:53.277Z,98792.41
2023-04-25T03:58:19.878Z,98796.25
2023-04-25T04:01:08.506Z,98795.28
2023-04-25T04:03:37.481Z,98799.97
2023-04-25T04:06:29.739Z,98793.81
2023-04-25T04:09:21.479Z,98796.47
2023-04-25T04:11:48.146Z,98802.13
2023-04-25T04:14:14.803Z,98805.22
2023-04-25T04:16:41.456Z,98809.03
2023-04-25T04:19:08.566Z,98802.63
2023-04-25T04:21:35.204Z,98811.00
2023-04-25T04:24:01.798Z,98804.78
2023-04-25T04:26:34.605Z,98812.66
2023-04-25T04:29:01.315Z,98816.31
2023-04-25T04:31:27.961Z,98814.25
2023-04-25T04:33:54.565Z,98814.09
2023-04-25T04:39:35.554Z,98812.81
2023-04-25T04:42:06.023Z,98815.19
2023-04-25T04:44:36.483Z,98817.97
2023-04-25T04:47:07.215Z,98809.72
2023-04-25T04:49:34.310Z,98812.87
2023-04-25T04:52:01.979Z,98822.34
2023-04-25T04:54:31.599Z,98815.59
2023-04-25T04:56:58.179Z,98814.47
2023-04-25T04:59:24.829Z,98805.22
2023-04-25T05:01:51.479Z,98804.22
2023-04-25T05:04:18.188Z,98813.97
2023-04-25T05:06:48.183Z,98810.59
2023-04-25T05:09:16.156Z,98815.44
2023-04-25T05:11:42.720Z,98809.56
2023-04-25T05:14:09.330Z,98819.25
2023-04-25T05:16:36.280Z,98813.31
2023-04-25T05:19:02.939Z,98813.22
2023-04-25T05:21:29.746Z,98819.94
2023-04-25T05:23:56.770Z,98813.00
2023-04-25T05:26:23.384Z,98818.75
2023-04-25T05:28:51.969Z,98823.31
2023-04-25T05:31:18.611Z,98813.31
2023-04-25T05:33:45.256Z,98816.06
2023-04-25T05:36:11.824Z,98817.09
2023-04-25T05:38:38.375Z,98819.44
2023-04-25T05:41:05.099Z,98822.38
2023-04-25T05:43:31.781Z,98818.13
2023-04-25T05:45:58.405Z,98805.69
2023-04-25T05:48:25.072Z,98817.56
2023-04-25T05:50:52.594Z,98816.19
2023-04-25T05:53:20.597Z,98816.41
2023-04-25T05:55:47.843Z,98815.78
2023-04-25T05:58:14.511Z,98815.28
2023-04-25T06:00:42.713Z,98820.22
2023-04-25T06:03:10.956Z,98833.97
2023-04-25T06:05:37.901Z,98832.34
2023-04-25T06:08:04.628Z,98832.44
2023-04-25T06:10:46.348Z,98840.22
2023-04-25T06:13:25.015Z,98833.75
2023-04-25T06:15:56.570Z,98832.69
2023-04-25T06:18:23.196Z,98836.44
2023-04-25T06:20:52.050Z,98841.28
2023-04-25T06:25:53.869Z,98844.41
2023-04-25T06:30:55.816Z,98843.31
2023-04-25T06:33:23.192Z,98844.16
2023-04-25T06:35:55.871Z,98847.78
2023-04-25T06:38:22.487Z,98852.56
2023-04-25T06:40:49.078Z,98846.19
2023-04-25T06:43:15.667Z,98846.12
2023-04-25T06:46:14.049Z,98853.81
2023-04-25T06:48:53.746Z,98849.22
2023-04-25T06:51:21.722Z,98854.81
2023-04-25T06:53:50.211Z,98854.22
2023-04-25T06:56:17.180Z,98853.91
2023-04-25T06:58:43.692Z,98848.97
2023-04-25T07:01:10.275Z,98859.81
2023-04-25T07:03:38.639Z,98864.28
2023-04-25T07:06:05.655Z,98855.56
2023-04-25T07:08:32.280Z,98859.38
2023-04-25T07:10:59.225Z,98856.56
2023-04-25T07:13:25.822Z,98850.19
2023-04-25T07:15:52.379Z,98856.19
2023-04-25T07:18:18.873Z,98863.59
2023-04-25T07:20:45.602Z,98866.50
2023-04-25T07:23:12.163Z,98853.47
2023-04-25T07:25:38.877Z,98855.66
2023-04-25T07:28:05.805Z,98871.66
2023-04-25T07:30:32.565Z,98863.94
2023-04-25T07:32:59.222Z,98859.75
2023-04-25T07:35:25.837Z,98867.50
2023-04-25T07:37:52.661Z,98865.06
2023-04-25T07:40:19.368Z,98867.47
2023-04-25T07:42:46.133Z,98871.19
2023-04-25T07:45:12.956Z,98876.97
2023-04-25T07:47:39.804Z,98870.03
2023-04-25T07:50:07.036Z,98873.13
2023-04-25T07:52:33.591Z,98879.09
2023-04-25T07:55:00.167Z,98871.16
2023-04-25T07:57:26.834Z,98870.84
2023-04-25T07:59:53.481Z,98877.62
2023-04-25T08:02:20.028Z,98867.38
2023-04-25T08:04:47.513Z,98868.78
2023-04-25T08:07:14.333Z,98863.69
2023-04-25T08:09:40.968Z,98863.25
2023-04-25T08:12:07.593Z,98864.25
2023-04-25T08:14:37.043Z,98875.88
2023-04-25T08:17:04.845Z,98876.28
2023-04-25T08:19:31.838Z,98871.63
2023-04-25T08:21:58.499Z,98876.38
2023-04-25T08:24:25.034Z,98872.75
2023-04-25T08:26:52.728Z,98869.53
2023-04-25T08:29:19.310Z,98871.34
2023-04-25T08:31:49.119Z,98878.84
2023-04-25T08:34:16.292Z,98872.34
2023-04-25T08:36:42.822Z,98876.28
2023-04-25T08:39:09.995Z,98882.78
2023-04-25T08:41:38.522Z,98883.38
2023-04-25T08:44:06.464Z,98892.84
2023-04-25T08:46:33.660Z,98889.28
2023-04-25T08:49:03.181Z,98899.34
2023-04-25T08:51:32.815Z,98896.28
2023-04-25T08:54:23.348Z,98906.53
2023-04-25T08:56:59.122Z,98901.91
2023-04-25T08:59:26.576Z,98898.56
2023-04-25T09:01:53.283Z,98903.72
2023-04-25T09:04:22.584Z,98903.44
2023-04-25T09:06:49.647Z,98905.84
2023-04-25T09:09:16.808Z,98909.16
2023-04-25T09:11:43.464Z,98908.34
2023-04-25T09:14:26.155Z,98902.03
2023-04-25T09:17:01.247Z,98902.19
2023-04-25T09:22:05.416Z,98909.59
2023-04-25T09:24:38.429Z,98912.88
2023-04-25T09:27:06.654Z,98907.44
2023-04-25T09:29:35.038Z,98901.66
2023-04-25T09:32:22.602Z,98901.88
2023-04-25T09:34:58.893Z,98900.22
2023-04-25T09:37:28.084Z,98897.47
2023-04-25T09:40:06.351Z,98890.78
2023-04-25T09:42:35.509Z,98900.94
2023-04-25T09:48:54.931Z,98901.16
2023-04-25T09:51:26.938Z,98899.75
2023-04-25T09:53:53.683Z,98895.81
2023-04-25T09:56:21.204Z,98900.28
2023-04-25T09:58:48.598Z,98897.00
2023-04-25T10:01:17.495Z,98902.03
2023-04-25T10:03:45.915Z,98899.62
2023-04-25T10:06:24.016Z,98907.50
2023-04-25T10:08:54.604Z,98894.94
2023-04-25T10:11:24.075Z,98896.87
2023-04-25T10:13:51.895Z,98894.13
2023-04-25T10:16:18.976Z,98902.16
2023-04-25T10:18:45.591Z,98899.16
2023-04-25T10:21:13.697Z,98908.00
2023-04-25T10:23:41.624Z,98899.75
2023-04-25T10:26:13.609Z,98894.72
2023-04-25T10:29:01.931Z,98896.25
2023-04-25T10:31:28.694Z,98897.97
2023-04-25T10:33:55.696Z,98890.44
2023-04-25T10:36:24.267Z,98892.41
2023-04-25T10:38:52.142Z,98882.09
2023-04-25T10:41:20.739Z,98883.00
2023-04-25T10:43:49.318Z,98896.22
2023-04-25T10:46:26.829Z,98895.03
2023-04-25T10:48:54.740Z,98889.16
2023-04-25T10:51:24.135Z,98895.41
2023-04-25T10:53:56.792Z,98896.87
2023-04-25T10:56:26.812Z,98904.25
2023-04-25T10:59:05.151Z,98901.25
2023-04-25T11:01:39.520Z,98905.81
2023-04-25T11:04:07.002Z,98910.66
2023-04-25T11:07:09.303Z,98906.78
2023-04-25T11:09:38.946Z,98904.69
2023-04-25T11:12:08.127Z,98899.88
2023-04-25T11:14:34.914Z,98900.47
2023-04-25T11:17:02.990Z,98887.94
2023-04-25T11:19:30.524Z,98892.03
2023-04-25T11:21:58.390Z,98899.41
2023-04-25T11:24:35.720Z,98901.16
2023-04-25T11:27:03.660Z,98907.47
2023-04-25T11:29:31.805Z,98903.22
2023-04-25T11:31:59.382Z,98895.72
2023-04-25T11:34:27.164Z,98906.31
2023-04-25T11:36:54.504Z,98910.47
2023-04-25T11:39:22.423Z,98910.63
2023-04-25T11:41:49.051Z,98911.69
2023-04-25T11:44:19.694Z,98915.00
2023-04-25T11:46:47.252Z,98922.81
2023-04-25T11:49:19.367Z,98929.72
2023-04-25T11:51:48.615Z,98929.50
2023-04-25T11:54:16.494Z,98925.59
2023-04-25T11:56:44.428Z,98935.13
2023-04-25T11:59:35.002Z,98946.81
2023-04-25T12:02:47.993Z,98928.69
2023-04-25T12:05:31.282Z,98936.97
2023-04-25T12:07:59.140Z,98943.84
2023-04-25T12:10:27.090Z,98941.34
2023-04-25T12:12:55.166Z,98937.97
2023-04-25T12:15:26.222Z,98937.31
2023-04-25T12:20:34.705Z,98932.69
2023-04-25T12:23:01.428Z,98932.56
2023-04-25T12:25:39.163Z,98930.06
2023-04-25T12:28:15.569Z,98922.56
2023-04-25T12:31:00.769Z,98925.31
2023-04-25T12:33:49.841Z,98921.97
2023-04-25T12:36:40.855Z,98925.75
2023-04-25T12:39:24.558Z,98919.03
2023-04-25T12:41:54.917Z,98918.97
2023-04-25T12:44:22.188Z,98898.63
2023-04-25T12:46:49.851Z,98902.97
2023-04-25T12:49:26.930Z,98915.94
2023-04-25T12:51:53.544Z,98916.72
2023-04-25T12:54:20.720Z,98900.12
2023-04-25T12:56:47.391Z,98900.97
2023-04-25T12:59:14.016Z,98903.69
2023-04-25T13:01:40.707Z,98909.81
2023-04-25T13:04:07.807Z,98897.63
2023-04-25T13:06:37.174Z,98899.47
2023-04-25T13:09:04.488Z,98908.28
2023-04-25T13:11:31.800Z,98903.25
2023-04-25T13:13:58.622Z,98900.16
2023-04-25T13:16:25.236Z,98899.16
2023-04-25T13:18:52.019Z,98896.22
2023-04-25T13:21:18.888Z,98903.50
2023-04-25T13:23:47.538Z,98889.72
2023-04-25T13:26:14.181Z,98882.53
2023-04-25T13:28:42.959Z,98882.63
2023-04-25T13:31:11.404Z,98874.34
2023-04-25T13:33:37.986Z,98884.00
2023-04-25T13:36:04.955Z,98885.16
2023-04-25T13:38:31.615Z,98882.56
2023-04-25T13:40:58.364Z,98887.28
2023-04-25T13:43:24.923Z,98883.16
2023-04-25T13:45:51.660Z,98881.34
2023-04-25T13:48:19.632Z,98884.00
2023-04-25T13:50:46.631Z,98890.16
2023-04-25T13:53:13.851Z,98885.75
2023-04-25T13:55:40.677Z,98889.47
2023-04-25T13:58:11.021Z,98890.06
2023-04-25T14:00:40.112Z,98884.25
2023-04-25T14:03:22.262Z,98886.72
2023-04-25T14:05:50.916Z,98885.19
2023-04-25T14:08:17.492Z,98888.03
2023-04-25T14:10:44.038Z,98885.28
2023-04-25T14:13:29.158Z,98890.91
2023-04-25T14:16:16.024Z,98882.03
2023-04-25T14:19:04.616Z,98878.47
2023-04-25T14:21:33.441Z,98879.91
2023-04-25T14:24:00.036Z,98887.19
2023-04-25T14:26:26.626Z,98893.78
2023-04-25T14:28:53.660Z,98884.94
2023-04-25T14:31:20.210Z,98888.37
2023-04-25T14:33:47.109Z,98883.63
2023-04-25T14:36:13.749Z,98892.41
2023-04-25T14:38:40.603Z,98890.47
2023-04-25T14:41:07.226Z,98893.13
2023-04-25T14:43:33.913Z,98878.94
2023-04-25T14:46:00.514Z,98876.31
2023-04-25T14:51:02.468Z,98886.22
2023-04-25T14:53:29.837Z,98880.72
2023-04-25T14:55:56.491Z,98884.25
2023-04-25T14:58:23.829Z,98886.91
2023-04-25T15:00:50.631Z,98877.84
2023-04-25T15:03:42.655Z,98878.72
2023-04-25T15:06:37.372Z,98879.87
2023-04-25T15:11:39.758Z,98895.06
2023-04-25T15:14:06.689Z,98882.00
2023-04-25T15:16:33.323Z,98882.13
2023-04-25T15:18:59.941Z,98889.00
2023-04-25T15:21:27.505Z,98889.00
2023-04-25T15:26:29.624Z,98893.00
2023-04-25T15:28:56.301Z,98893.81
2023-04-25T15:31:23.302Z,98896.78
2023-04-25T15:37:27.124Z,98902.87
2023-04-25T15:40:10.700Z,98900.34
2023-04-25T15:42:38.241Z,98906.41
2023-04-25T15:45:09.162Z,98911.69
2023-04-25T15:47:36.922Z,98912.38
2023-04-25T15:50:08.398Z,98910.78
2023-04-25T15:52:36.504Z,98911.00
2023-04-25T15:55:07.797Z,98912.16
2023-04-25T15:57:35.506Z,98924.16
2023-04-25T16:00:13.270Z,98915.56
2023-04-25T16:02:40.958Z,98918.28
2023-04-25T16:05:09.018Z,98914.97
2023-04-25T16:07:36.317Z,98916.56
2023-04-25T16:10:03.126Z,98913.16
2023-04-25T16:12:31.161Z,98924.31
2023-04-25T16:14:58.273Z,98923.50
2023-04-25T16:17:25.753Z,98923.84
2023-04-25T16:19:52.327Z,98923.66
2023-04-25T16:22:19.134Z,98918.78
2023-04-25T16:24:45.690Z,98928.09
2023-04-25T16:27:12.380Z,98929.56
2023-04-25T16:29:39.315Z,98920.88
2023-04-25T16:32:06.243Z,98910.50
2023-04-25T16:34:32.919Z,98917.94
2023-04-25T16:36:59.816Z,98918.19
2023-04-25T16:39:26.403Z,98917.72
2023-04-25T16:41:53.324Z,98914.56
2023-04-25T16:44:19.917Z,98922.19
2023-04-25T16:46:46.548Z,98912.53
2023-04-25T16:49:13.147Z,98918.16
2023-04-25T16:51:39.754Z,98916.22
2023-04-25T16:54:06.468Z,98917.84
2023-04-25T16:56:36.219Z,98913.50
2023-04-25T16:59:02.846Z,98916.00
2023-04-25T17:01:29.912Z,98917.47
2023-04-25T17:03:56.959Z,98928.66
2023-04-25T17:06:23.661Z,98921.72
2023-04-25T17:08:51.092Z,98931.12
2023-04-25T17:11:18.832Z,98925.56
2023-04-25T17:13:46.205Z,98929.81
2023-04-25T17:16:16.490Z,98929.09
2023-04-25T17:18:44.115Z,98937.09
2023-04-25T17:21:10.881Z,98937.53
2023-04-25T17:23:37.683Z,98938.16
2023-04-25T17:26:04.263Z,98939.25
2023-04-25T17:28:31.058Z,98946.50
2023-04-25T17:30:58.979Z,98944.69
2023-04-25T17:33:27.131Z,98946.66
2023-04-25T17:35:54.367Z,98950.06
2023-04-25T17:38:21.162Z,98964.06
2023-04-25T17:40:47.964Z,98965.59
2023-04-25T17:43:14.534Z,98965.37
2023-04-25T17:45:41.326Z,98963.50
2023-04-25T17:48:08.504Z,98968.88
2023-04-25T17:50:35.345Z,98971.09
2023-04-25T17:53:05.592Z,98976.78
2023-04-25T17:55:32.187Z,98977.94
2023-04-25T17:57:58.766Z,98976.91
2023-04-25T18:00:25.645Z,98975.91
2023-04-25T18:02:52.730Z,98976.12
2023-04-25T18:05:19.636Z,98990.59
2023-04-25T18:07:46.283Z,98993.97
2023-04-25T18:10:14.795Z,98994.44
2023-04-25T18:12:41.573Z,99005.34
2023-04-25T18:15:09.293Z,99001.81
2023-04-25T18:17:40.335Z,99006.12
2023-04-25T18:20:14.915Z,99007.53
2023-04-25T18:22:43.202Z,99013.75
2023-04-25T18:25:13.911Z,99012.53
2023-04-25T18:27:41.723Z,99015.63
2023-04-25T18:30:10.867Z,99018.94
2023-04-25T18:32:38.513Z,99020.41
2023-04-25T18:35:10.204Z,99022.12
2023-04-25T18:37:41.618Z,99029.41
2023-04-25T18:40:12.887Z,99030.12
2023-04-25T18:42:39.964Z,99028.22
2023-04-25T18:45:07.196Z,99026.37
2023-04-25T18:47:33.816Z,99027.41
2023-04-25T18:50:03.164Z,99027.09
2023-04-25T18:52:29.732Z,99032.91
2023-04-25T18:54:56.775Z,99041.06
2023-04-25T18:57:23.560Z,99040.50
2023-04-25T18:59:50.115Z,99039.84
2023-04-25T19:02:18.073Z,99045.66
2023-04-25T19:04:44.796Z,99040.66
2023-04-25T19:07:11.418Z,99043.41
2023-04-25T19:09:38.028Z,99044.84
2023-04-25T19:12:05.052Z,99049.03
2023-04-25T19:14:33.110Z,99051.78
2023-04-25T19:17:00.117Z,99055.66
2023-04-25T19:19:27.510Z,99054.50
2023-04-25T19:21:54.258Z,99055.16
2023-04-25T19:24:21.060Z,99051.62
2023-04-25T19:26:47.650Z,99051.81
2023-04-25T19:29:15.285Z,99055.31
2023-04-25T19:31:44.538Z,99053.22
2023-04-25T19:34:11.431Z,99055.34
2023-04-25T19:36:39.767Z,99049.38
2023-04-25T19:39:07.476Z,99049.03
2023-04-25T19:41:36.598Z,99040.00
2023-04-25T19:44:08.457Z,99038.56
2023-04-25T19:46:36.809Z,99052.12
2023-04-25T19:49:07.228Z,99047.41
2023-04-25T19:51:34.652Z,99062.75
2023-04-25T19:54:01.365Z,99055.00
2023-04-25T19:56:28.284Z,99051.13
2023-04-25T19:58:56.252Z,99058.09
2023-04-25T20:01:23.041Z,99060.19
2023-04-25T20:03:53.045Z,99066.78
2023-04-25T20:06:19.908Z,99065.16
2023-04-25T20:08:47.250Z,99072.25
2023-04-25T20:11:14.029Z,99073.25
2023-04-25T20:13:40.748Z,99074.56
2023-04-25T20:16:07.799Z,99071.81
2023-04-25T20:18:34.934Z,99077.28
2023-04-25T20:21:02.156Z,99073.41
2023-04-25T20:23:28.958Z,99067.09
2023-04-25T20:25:55.938Z,99084.22
2023-04-25T20:28:23.245Z,99076.31
2023-04-25T20:30:50.721Z,99071.47
2023-04-25T20:33:17.356Z,99077.06
2023-04-25T20:35:44.122Z,99077.41
2023-04-25T20:39:00.982Z,99079.81
2023-04-25T20:41:48.199Z,99078.63
2023-04-25T20:44:14.961Z,99073.25
2023-04-25T20:46:41.548Z,99072.88
2023-04-25T20:49:08.153Z,99070.47
2023-04-25T20:51:35.375Z,99070.38
2023-04-25T20:54:05.120Z,99071.31
2023-04-25T20:56:51.277Z,99079.47
2023-04-25T20:59:18.226Z,99093.53
2023-04-25T21:01:45.163Z,99099.59
2023-04-25T21:04:11.912Z,99097.59
2023-04-25T21:06:53.820Z,99099.72
2023-04-25T21:12:52.019Z,99109.91
2023-04-25T21:15:21.502Z,99111.16
2023-04-25T21:17:49.982Z,99110.94
2023-04-25T21:20:18.656Z,99107.25
2023-04-25T21:22:50.978Z,99114.38
2023-04-25T21:25:24.141Z,99112.59
2023-04-25T21:28:09.805Z,99115.13
2023-04-25T21:30:36.389Z,99113.47
2023-04-25T21:33:03.742Z,99115.22
2023-04-25T21:35:30.539Z,99111.69
2023-04-25T21:38:15.655Z,99112.03
2023-04-25T21:40:56.480Z,99116.50
2023-04-25T21:43:23.040Z,99109.00
2023-04-25T21:46:14.808Z,99114.19
2023-04-25T21:48:36.185Z,99115.75
2023-04-25T21:51:02.778Z,99125.47
2023-04-25T21:53:29.368Z,99126.09
2023-04-25T21:58:31.196Z,99122.13
2023-04-25T22:00:59.457Z,99127.88
2023-04-25T22:03:26.224Z,99125.00
2023-04-25T22:06:03.902Z,99126.09
2023-04-25T22:09:21.535Z,99124.31
2023-04-25T22:12:04.079Z,99131.41
2023-04-25T22:14:31.658Z,99144.41
2023-04-25T22:16:58.543Z,99140.81
2023-04-25T22:19:25.099Z,99143.69
2023-04-25T22:21:58.404Z,99151.97
2023-04-25T22:24:29.603Z,99155.09
2023-04-25T22:27:11.011Z,99155.53
2023-04-25T22:29:37.574Z,99160.19
2023-04-25T22:32:04.308Z,99158.53
2023-04-25T22:34:30.969Z,99160.88
2023-04-25T22:37:22.359Z,99156.84
2023-04-25T22:40:07.122Z,99158.34
2023-04-25T22:42:38.593Z,99170.06
2023-04-25T22:45:06.570Z,99165.63
2023-04-25T22:47:33.601Z,99167.12
2023-04-25T22:52:35.618Z,99165.22
2023-04-25T22:55:03.301Z,99165.34
2023-04-25T22:57:30.395Z,99163.81
2023-04-25T22:59:59.824Z,99165.94
2023-04-25T23:02:27.623Z,99163.72
2023-04-25T23:10:32.010Z,99160.47
2023-04-25T23:13:00.905Z,99162.91
2023-04-25T23:15:31.545Z,99168.84
2023-04-25T23:17:58.592Z,99184.63
2023-04-25T23:20:25.294Z,99184.22
2023-04-25T23:22:51.890Z,99192.34
2023-04-25T23:25:26.699Z,99185.47
2023-04-25T23:31:17.220Z,99200.03
2023-04-25T23:33:43.991Z,99195.38
2023-04-25T23:36:19.938Z,99195.50
2023-04-25T23:38:46.815Z,99193.16
2023-04-25T23:41:13.653Z,99200.22
2023-04-25T23:43:40.213Z,99200.94
2023-04-25T23:46:07.263Z,99201.34
2023-04-25T23:48:33.857Z,99197.50
2023-04-25T23:51:01.007Z,99191.00
2023-04-25T23:53:27.569Z,99200.03
2023-04-25T23:55:54.593Z,99197.09
2023-04-25T23:58:21.180Z,99208.81
